Thunder radar more information blitzortung!


Radar de pluja more information rain snow radar


Visita la nostra xarxa de llocs de meteo:

Template documentation
and downloads

And another site



No particular awareness of the weather is required.    There are no Weather-warnings

Pagina Historial Weather Underground text

Diari Resum Agost 10, 2017 Unitats:  Imperial    Mètric   Tant
« Previous Dia
SegĂźent Dia »
Diari Setmana Mensual Anual Personalitzada
  Maxima: Minima: Media:
Temperatura: 84.4 °F 57 °F 72.3 °F
Punt de rosada: 57.7 °F 43.2 °F 50.7 °F
Humitat: 88 % 27 % 49 %
Wind Speed: 15 mph 0 mph 4.2 mph
RĂ fegues de vent: 15 mph - -
Vent:- - SSW
Pression baro: 30.2 in 30 in -
Precipitacions: 0 in    
Historical Graphs
 
 
Dades de taula per Agost 10, 2017
Temps Temperatura Punt de rosada Pression baro Vent Wind Speed RĂ fegues de vent Humitat Rainfall Rate (Hourly)
00:00 58.8 °F 54 °F 30.1 in WSW 1 mph 2 mph 84 % 0 in
00:01 61.3 °F 57.7 °F 30.1 in NE 1.2 mph   88 % 0.28 in
00:06 61.3 °F 57.4 °F 30.1 in SW 2.3 mph 2.3 mph 87 % 0.28 in
00:10 58.5 °F 53.6 °F 30.1 in SW 1 mph 3 mph 84 % 0 in
00:20 58.1 °F 53.2 °F 30.1 in WSW 1 mph 3 mph 84 % 0 in
00:30 57.9 °F 52.9 °F 30.1 in WSW 2 mph 3 mph 83 % 0 in
00:40 57.7 °F 52.5 °F 30.1 in WSW 1 mph 3 mph 83 % 0 in
00:50 57.6 °F 51.8 °F 30.1 in WSW 2 mph 4 mph 81 % 0 in
01:00 57.7 °F 51.6 °F 30.1 in WSW 3 mph 4 mph 80 % 0 in
01:10 57.9 °F 51.4 °F 30 in WSW 3 mph 4 mph 79 % 0 in
01:20 57.9 °F 51.1 °F 30.1 in WSW 2 mph 3 mph 78 % 0 in
01:30 57.7 °F 50.9 °F 30.1 in West 1 mph 2 mph 78 % 0 in
01:40 57.7 °F 50.5 °F 30.1 in West 2 mph 4 mph 77 % 0 in
01:50 57.6 °F 50.4 °F 30.1 in West 2 mph 2 mph 77 % 0 in
02:00 57.4 °F 49.8 °F 30.1 in WNW 1 mph 2 mph 76 % 0 in
02:10 57.2 °F 49.6 °F 30 in WNW 2 mph 3 mph 76 % 0 in
02:20 57.2 °F 49.6 °F 30.1 in West 1 mph 4 mph 76 % 0 in
02:30 57.2 °F 49.6 °F 30.1 in WSW 2 mph 3 mph 76 % 0 in
02:40 57 °F 49.5 °F 30.1 in WSW 2 mph 5 mph 76 % 0 in
02:50 57 °F 49.3 °F 30.1 in West 1 mph 3 mph 75 % 0 in
03:00 57 °F 49.3 °F 30.1 in West 2 mph 3 mph 75 % 0 in
03:10 57 °F 49.5 °F 30.1 in Calm   3 mph 76 % 0 in
03:20 57.6 °F 50 °F 30.1 in West 2 mph 3 mph 76 % 0 in
03:30 57.7 °F 50.2 °F 30.1 in Calm   3 mph 76 % 0 in
03:40 57.9 °F 50.7 °F 30.1 in SW 1 mph 2 mph 77 % 0 in
03:50 57.9 °F 50.7 °F 30.1 in SW 1 mph 3 mph 77 % 0 in
04:00 58.3 °F 50.7 °F 30.1 in WSW 2 mph 3 mph 76 % 0 in
04:10 58.5 °F 50.9 °F 30.1 in WSW 1 mph 2 mph 76 % 0 in
04:20 59 °F 51.4 °F 30.2 in West 1 mph 2 mph 76 % 0 in
04:30 59.5 °F 52 °F 30.2 in NW 1 mph 3 mph 76 % 0 in
04:40 61.5 °F 53.4 °F 30.1 in North 1 mph 3 mph 75 % 0 in
04:50 62.2 °F 53.8 °F 30.1 in NNE 1 mph 3 mph 74 % 0 in
05:00 63.1 °F 54.3 °F 30.1 in ENE 1 mph 4 mph 73 % 0 in
05:10 63.1 °F 53.6 °F 30.1 in SSW 2 mph 6 mph 71 % 0 in
10:14 64.4 °F 54.3 °F 30.1 in SW 3.5 mph 3.5 mph 70 % 0 in
10:15 64.4 °F 54.3 °F 30.1 in WSW 3.5 mph 3.5 mph 70 % 0 in
10:20 65.5 °F 55 °F 30.1 in East 2.4 mph 2.4 mph 69 % 0 in
10:25 65.1 °F 54.3 °F 30.1 in ENE 4.6 mph 4.6 mph 68 % 0 in
10:30 65.3 °F 54.9 °F 30.1 in NNW 2.3 mph 2.3 mph 69 % 0 in
10:35 65.5 °F 54.7 °F 30.1 in NW 2.3 mph 2.3 mph 68 % 0 in
10:40 65.3 °F 53.6 °F 30.1 in NNE 3.5 mph 3.5 mph 66 % 0 in
10:45 65.7 °F 54.3 °F 30.1 in North 4.6 mph 4.6 mph 67 % 0 in
10:50 66.6 °F 54.9 °F 30.1 in ENE 3.5 mph 3.5 mph 66 % 0 in
10:55 66.6 °F 54.3 °F 30.1 in NNW 3.5 mph 3.5 mph 65 % 0 in
11:00 66.6 °F 54.9 °F 30.1 in SW 5.4 mph 5.4 mph 66 % 0 in
11:05 66.7 °F 54.7 °F 30.1 in SSW 1.2 mph   65 % 0 in
11:10 67.5 °F 54.9 °F 30.1 in NE 2.4 mph 2.4 mph 64 % 0 in
11:15 67.6 °F 54.7 °F 30.1 in ESE 2.3 mph 2.3 mph 63 % 0 in
11:20 69.1 °F 55.9 °F 30.1 in NE 3.5 mph 3.5 mph 63 % 0 in
11:25 69.1 °F 55.6 °F 30.1 in ESE 2.3 mph 2.3 mph 62 % 0 in
11:30 70.5 °F 55.9 °F 30.1 in ESE 2.3 mph 2.3 mph 60 % 0 in
11:35 70.2 °F 55.6 °F 30.1 in West 3.5 mph 3.5 mph 60 % 0 in
11:40 70.2 °F 55.6 °F 30.1 in SW 3.5 mph 3.5 mph 60 % 0 in
11:45 71.1 °F 56.5 °F 30.1 in WSW 3.5 mph 3.5 mph 60 % 0 in
11:50 71.2 °F 56.1 °F 30.1 in NE 3.5 mph 3.5 mph 59 % 0 in
11:55 71.1 °F 55.6 °F 30.1 in NW 3.5 mph 3.5 mph 58 % 0 in
12:00 70.7 °F 55.2 °F 30.1 in ENE 4.6 mph 4.6 mph 58 % 0 in
12:05 70.3 °F 54.3 °F 30.1 in WNW 6.9 mph 6.9 mph 57 % 0 in
12:10 70.7 °F 54.7 °F 30.1 in NNE 6.2 mph 6.2 mph 57 % 0 in
12:15 70.3 °F 53.4 °F 30.1 in North 4 mph 4 mph 55 % 0 in
12:20 71.6 °F 54.7 °F 30.1 in SW 2.3 mph 2.3 mph 55 % 0 in
12:25 72.3 °F 55.2 °F 30.1 in East 1.4 mph 1.4 mph 55 % 0 in
12:30 72.9 °F 55.2 °F 30.1 in ENE 4.6 mph 4.6 mph 54 % 0 in
12:35 73.2 °F 55.6 °F 30.1 in East 2.4 mph 2.4 mph 54 % 0 in
12:40 73.8 °F 55.6 °F 30.1 in NW 3.8 mph 3.8 mph 53 % 0 in
12:45 73.8 °F 55.6 °F 30.1 in SSW 2.3 mph 2.4 mph 53 % 0 in
12:50 74.7 °F 55.9 °F 30.1 in SSW 4.7 mph 4.7 mph 52 % 0 in
12:55 74.7 °F 54.9 °F 30.1 in West 5.8 mph 5.8 mph 50 % 0 in
13:00 74.8 °F 54.3 °F 30.1 in West 2.3 mph 2.9 mph 49 % 0 in
13:05 75.9 °F 55.4 °F 30.1 in SW 6.2 mph 6.2 mph 49 % 0 in
13:10 75.7 °F 54.7 °F 30.1 in SW 5.8 mph 5.8 mph 48 % 0 in
13:15 76.6 °F 55.6 °F 30.1 in SW 5.6 mph 5.6 mph 48 % 0 in
13:20 77 °F 55.2 °F 30.1 in West 3.5 mph 3.5 mph 47 % 0 in
13:25 77 °F 54 °F 30.1 in WSW 3.5 mph 3.5 mph 45 % 0 in
13:30 77.4 °F 54.3 °F 30.1 in WNW 9.2 mph 9.2 mph 45 % 0 in
13:35 78.1 °F 55 °F 30.1 in West 4.6 mph 4.6 mph 45 % 0 in
13:40 77.9 °F 54.1 °F 30.1 in SW 8.1 mph 8.1 mph 44 % 0 in
13:45 78.6 °F 54.1 °F 30.1 in West 5.8 mph 5.8 mph 43 % 0 in
13:50 77.9 °F 52.3 °F 30.1 in WSW 6.9 mph 6.9 mph 41 % 0 in
13:55 78.1 °F 52.5 °F 30.1 in SSW 5.8 mph 5.8 mph 41 % 0 in
14:00 78.6 °F 52.3 °F 30.1 in South 5.8 mph 5.8 mph 40 % 0 in
14:05 78.4 °F 51.4 °F 30.1 in SE 5.8 mph 5.8 mph 39 % 0 in
14:10 78.3 °F 50.5 °F 30.1 in West 8.1 mph 8.1 mph 38 % 0 in
14:15 78.4 °F 50 °F 30.1 in SSW 5.8 mph 5.8 mph 37 % 0 in
14:20 78.8 °F 49.6 °F 30.1 in SSW 9.2 mph 9.2 mph 36 % 0 in
14:25 79.3 °F 50.7 °F 30.1 in WSW 4.9 mph 4.9 mph 37 % 0 in
14:30 79.2 °F 49.1 °F 30.1 in WSW 5.8 mph 5.8 mph 35 % 0 in
14:35 79.5 °F 49.5 °F 30.1 in WSW 5.8 mph 5.8 mph 35 % 0 in
14:40 78.6 °F 47.1 °F 30.1 in SW 10.4 mph 10.4 mph 33 % 0 in
14:45 79.3 °F 48.6 °F 30.1 in SW 4.6 mph 4.6 mph 34 % 0 in
14:50 79.5 °F 47.8 °F 30.1 in SW 3.5 mph 3.5 mph 33 % 0 in
14:55 79.5 °F 47.8 °F 30.1 in NNW 6.9 mph 6.9 mph 33 % 0 in
15:00 80.1 °F 49.3 °F 30.1 in West 6.9 mph 6.9 mph 34 % 0 in
15:05 80.6 °F 48.7 °F 30.1 in NNW 4.6 mph 4.6 mph 33 % 0 in
15:10 80.1 °F 48.4 °F 30.1 in SW 3.5 mph 3.5 mph 33 % 0 in
15:15 79.5 °F 48.7 °F 30.1 in WSW 6.9 mph 6.9 mph 34 % 0 in
15:20 80.6 °F 48.7 °F 30.1 in SSW 6 mph 6 mph 33 % 0 in
15:25 80.8 °F 48.2 °F 30.1 in NNW 3.5 mph 3.5 mph 32 % 0 in
15:30 81 °F 48.4 °F 30.1 in SE 3.1 mph 3.1 mph 32 % 0 in
15:35 81.7 °F 49.8 °F 30.1 in West 4.6 mph 4.6 mph 33 % 0 in
15:40 81.9 °F 49.1 °F 30.1 in SW 5.8 mph 5.8 mph 32 % 0 in
15:45 81.1 °F 48.6 °F 30 in WSW 4.6 mph 4.6 mph 32 % 0 in
15:50 81.9 °F 49.1 °F 30 in ENE 2.3 mph 2.6 mph 32 % 0 in
15:55 81.9 °F 49.1 °F 30 in SSW 7.4 mph 7.4 mph 32 % 0 in
16:00 82.6 °F 48 °F 30.1 in SW 6.9 mph 6.9 mph 30 % 0 in
16:05 82.2 °F 47.7 °F 30.1 in SW 4.6 mph 4.6 mph 30 % 0 in
16:10 82.4 °F 47.8 °F 30.1 in SW 5.8 mph 5.8 mph 30 % 0 in
16:15 82.8 °F 48.2 °F 30.1 in SW 5.8 mph 5.8 mph 30 % 0 in
16:20 83.3 °F 47.7 °F 30.1 in South 5.8 mph 5.8 mph 29 % 0 in
16:23 83.3 °F 48.6 °F 30.1 in SW 6.9 mph 6.9 mph 30 % 0 in
16:27 82.8 °F 47.3 °F 30.1 in NE 4.6 mph 4.6 mph 29 % 0 in
16:33 81.9 °F 46.6 °F 30.1 in SW 4.6 mph 4.6 mph 29 % 0 in
16:38 82.8 °F 47.3 °F 30.1 in West 4.6 mph 4.6 mph 29 % 0 in
16:43 83.1 °F 47.7 °F 30.1 in SW 4 mph 4 mph 29 % 0 in
16:47 82.9 °F 46.6 °F 30 in WSW 5.8 mph 5.8 mph 28 % 0 in
16:52 83.7 °F 48 °F 30 in West 4.6 mph 4.6 mph 29 % 0 in
16:57 83.7 °F 48 °F 30 in SW 3.5 mph 3.5 mph 29 % 0 in
17:02 83.7 °F 47.1 °F 30 in West 4.6 mph 4.6 mph 28 % 0 in
17:08 83.8 °F 47.1 °F 30 in WNW 4.6 mph 4.6 mph 28 % 0 in
17:13 83.7 °F 47.1 °F 30 in WSW 4.6 mph 4.6 mph 28 % 0 in
17:18 83.3 °F 46.8 °F 30 in SW 3.5 mph 3.8 mph 28 % 0 in
17:22 83.3 °F 46.8 °F 30 in West 8.1 mph 8.1 mph 28 % 0 in
17:27 83.7 °F 47.1 °F 30 in SW 3.5 mph 3.5 mph 28 % 0 in
17:32 84.4 °F 46.8 °F 30 in WSW 6.9 mph 6.9 mph 27 % 0 in
17:38 83.8 °F 46.2 °F 30 in West 5.8 mph 5.8 mph 27 % 0 in
17:43 84 °F 47.5 °F 30 in SW 6.2 mph 6.2 mph 28 % 0 in
17:48 83.3 °F 45.9 °F 30 in SSW 6.9 mph 6.9 mph 27 % 0 in
17:53 83.5 °F 46 °F 30 in South 5.8 mph 5.8 mph 27 % 0 in
17:58 82.2 °F 45.9 °F 30 in WSW 13.8 mph 13.8 mph 28 % 0 in
18:03 82 °F 47.5 °F 30 in SSW 4.6 mph 4.6 mph 30 % 0 in
18:08 82 °F 47.5 °F 30 in SSW 9.2 mph 9.2 mph 30 % 0 in
18:13 81.1 °F 47.7 °F 30 in SW 8.1 mph 8.1 mph 31 % 0 in
18:18 79.9 °F 46.6 °F 30 in SW 15 mph 15 mph 31 % 0 in
18:23 79.5 °F 47.1 °F 30 in SW 11.4 mph 11.4 mph 32 % 0 in
18:28 79 °F 46.6 °F 30 in South 10.4 mph 10.4 mph 32 % 0 in
18:33 78.8 °F 47.3 °F 30 in SSW 9.2 mph 9.2 mph 33 % 0 in
18:38 78.8 °F 48 °F 30 in SW 10.4 mph 10.4 mph 34 % 0 in
18:43 78.6 °F 47.8 °F 30 in SSW 9.2 mph 9.2 mph 34 % 0 in
18:48 78.3 °F 47.7 °F 30 in WSW 9.2 mph 9.2 mph 34 % 0 in
18:53 78.3 °F 48.4 °F 30 in SW 9.2 mph 9.2 mph 35 % 0 in
18:58 77.5 °F 47.7 °F 30 in SW 8.1 mph 8.1 mph 35 % 0 in
19:03 77.9 °F 48.7 °F 30 in SW 5.8 mph 5.8 mph 36 % 0 in
19:08 77.5 °F 48.6 °F 30 in SW 10.4 mph 10.4 mph 36 % 0 in
19:13 77.4 °F 48.4 °F 30 in SW 12.7 mph 12.7 mph 36 % 0 in
19:18 77.4 °F 48.4 °F 30 in SSW 9.2 mph 9.2 mph 36 % 0 in
19:23 77.2 °F 48.2 °F 30 in South 9.2 mph 9.2 mph 36 % 0 in
19:28 77.2 °F 48.2 °F 30 in SW 9.7 mph 9.7 mph 36 % 0 in
19:33 77.2 °F 48.9 °F 30 in SSW 8.1 mph 8.1 mph 37 % 0 in
19:38 76.8 °F 49.3 °F 30 in SW 9.2 mph 9.2 mph 38 % 0 in
19:43 76.5 °F 48.9 °F 30 in WSW 9.2 mph 9.2 mph 38 % 0 in
19:48 76.3 °F 48.7 °F 30 in West 12.3 mph 12.3 mph 38 % 0 in
19:53 76.1 °F 48.6 °F 30 in West 5.9 mph 5.9 mph 38 % 0 in
19:58 76.1 °F 49.3 °F 30 in SSW 5.8 mph 5.8 mph 39 % 0 in
20:03 75.9 °F 49.3 °F 30 in WSW 5.8 mph 5.8 mph 39 % 0 in
20:08 75.7 °F 49.6 °F 30 in WSW 8.5 mph 8.5 mph 40 % 0 in
20:13 75.6 °F 49.5 °F 30 in SW 4.6 mph 4.6 mph 40 % 0 in
20:18 75.2 °F 49.8 °F 30 in SW 5.8 mph 5.8 mph 41 % 0 in
20:23 75.2 °F 49.8 °F 30 in SW 5.6 mph 5.6 mph 41 % 0 in
20:28 75 °F 50.4 °F 30 in SSW 3.5 mph 3.5 mph 42 % 0 in
20:33 74.7 °F 50 °F 30 in SW 4.6 mph 4.6 mph 42 % 0 in
20:38 74.5 °F 50.5 °F 30 in SW 3.5 mph 3.6 mph 43 % 0 in
20:40 67.5 °F 47.1 °F 30.1 in WSW 3 mph 3 mph 48 % 0 in
20:43 74.5 °F 50.5 °F 30 in WSW 5.8 mph 5.8 mph 43 % 0 in
20:48 74.1 °F 50.7 °F 30 in SW 4.6 mph 4.6 mph 44 % 0 in
20:50 67.1 °F 46.8 °F 30.1 in WSW 2 mph 5 mph 48 % 0 in
20:53 73.9 °F 50.5 °F 30 in WNW 3.5 mph 3.5 mph 44 % 0 in
20:54 73.9 °F 50.5 °F 30 in WSW 2.3 mph 2.3 mph 44 % 0 in
20:59 73.8 °F 51.1 °F 30 in WSW 2.3 mph 2.4 mph 45 % 0 in
21:00 66.7 °F 45.9 °F 30.1 in West 1 mph 3 mph 47 % 0 in
21:04 73.6 °F 50.9 °F 30.1 in West 2.3 mph 2.3 mph 45 % 0 in
21:09 73.4 °F 51.4 °F 30.1 in West 1.6 mph 1.6 mph 46 % 0 in
21:10 66.4 °F 45.5 °F 30.1 in West 3 mph 3 mph 47 % 0 in
21:14 73.2 °F 51.8 °F 30.1 in West 1.2 mph   47 % 0 in
21:19 73 °F 51.6 °F 30 in NNE 2.3 mph 2.3 mph 47 % 0 in
21:20 66 °F 45.9 °F 30.1 in WSW 2 mph 3 mph 48 % 0 in
21:24 72.7 °F 51.3 °F 30 in NNE 1.2 mph 1.2 mph 47 % 0 in
21:29 72.7 °F 51.3 °F 30.1 in NNE 1.6 mph 1.6 mph 47 % 0 in
21:30 65.5 °F 45.3 °F 30.1 in West 1 mph 4 mph 48 % 0 in
21:34 72.5 °F 51.1 °F 30.1 in NNE 3.5 mph 3.5 mph 47 % 0 in
21:39 72.3 °F 51.4 °F 30.1 in NNE 3.5 mph 3.5 mph 48 % 0 in
21:40 65.3 °F 45.1 °F 30.1 in West 2 mph 3 mph 48 % 0 in
21:44 72.3 °F 51.4 °F 30.1 in East 2.3 mph 2.3 mph 48 % 0 in
21:49 72.5 °F 51.6 °F 30.1 in WNW 2.3 mph 2.3 mph 48 % 0 in
21:50 65.1 °F 45 °F 30.1 in West 2 mph 5 mph 48 % 0 in
21:54 72.3 °F 51.4 °F 30.1 in ENE 1.2 mph   48 % 0 in
21:59 72.1 °F 51.4 °F 30.1 in NNE 2.3 mph 2.3 mph 48 % 0 in
22:00 64.8 °F 44.6 °F 30.1 in West 2 mph 3 mph 48 % 0 in
22:04 72 °F 51.3 °F 30.1 in West 1.2 mph   48 % 0 in
22:09 72 °F 51.8 °F 30.1 in ESE 3.5 mph 3.5 mph 49 % 0 in
22:10 64.4 °F 44.2 °F 30.1 in WSW 1 mph 3 mph 48 % 0 in
22:14 72.1 °F 51.4 °F 30.1 in Calm     48 % 0 in
22:19 72 °F 51.8 °F 30.1 in NNE 4.9 mph 4.9 mph 49 % 0 in
22:20 64 °F 43.9 °F 30.1 in West 1 mph 2 mph 48 % 0 in
22:24 72 °F 51.8 °F 30.1 in NE 2.4 mph 2.4 mph 49 % 0 in
22:29 71.8 °F 51.6 °F 30.1 in WSW 2.4 mph 2.6 mph 49 % 0 in
22:30 63.3 °F 43.9 °F 30.1 in West 1 mph 2 mph 49 % 0 in
22:34 71.6 °F 52 °F 30.1 in ENE 4 mph 4 mph 50 % 0 in
22:39 71.6 °F 51.4 °F 30.1 in ENE 2.4 mph 2.4 mph 49 % 0 in
22:40 62.6 °F 43.2 °F 30.1 in Calm   2 mph 49 % 0 in
22:44 71.8 °F 52.2 °F 30.1 in ESE 2.9 mph 2.9 mph 50 % 0 in
22:50 71.8 °F 52.2 °F 30.1 in NW 3.5 mph 3.5 mph 50 % 0 in
22:55 71.8 °F 52.2 °F 30.1 in NE 5.8 mph 5.8 mph 50 % 0 in
23:00 71.8 °F 51.6 °F 30.1 in SE 3.1 mph 3.1 mph 49 % 0 in
23:05 71.8 °F 52.2 °F 30.1 in ENE 2.3 mph 2.3 mph 50 % 0 in
23:10 71.6 °F 52 °F 30.1 in ENE 2 mph 2 mph 50 % 0 in
23:15 71.4 °F 52.3 °F 30.1 in NE 2.3 mph 2.3 mph 51 % 0 in
23:20 71.2 °F 52.2 °F 30.1 in ESE 1.6 mph 1.6 mph 51 % 0 in
23:25 71.1 °F 52.5 °F 30.1 in ENE 3.5 mph 3.5 mph 52 % 0 in
23:30 70.9 °F 52.3 °F 30.1 in NE 2.3 mph 2.3 mph 52 % 0 in
23:35 70.9 °F 52.3 °F 30.1 in NNE 2.3 mph 2.3 mph 52 % 0 in
23:40 70.7 °F 52.7 °F 30.1 in Calm     53 % 0 in
23:45 70.7 °F 52.7 °F 30.1 in NW 1.6 mph 1.6 mph 53 % 0 in
23:50 70.7 °F 52.7 °F 30.1 in North 2.4 mph 2.4 mph 53 % 0 in
23:55 70.5 °F 51.4 °F 30.1 in ENE 1.2 mph   51 % 0 in
Meteo Sesrovires
Elogis d' Weather Underground - 3.75 mb

Guio original per  Jim McMurry - jmcmurry@mwt.net Adaptat per a la plantilla per  Wim van der Kuil - Leuven-Template.eu

Trobareu la nostra informacio del temps tambe a:

Weather Underground

AWEKAS